Aviation Digital Data Service (ADDS)

Output produced by METARs form (0925 UTC 16 September 2014)
found at http://aviationweather.gov/adds/metars/
 
KJAX 160521Z 1606/1706 VRB03KT P6SM SCT100 BKN200 
     FM161000 00000KT P6SM SCT010 BKN150 
     FM161500 28006KT P6SM VCSH SCT030 BKN100 
     FM161800 27007KT P6SM -SHRA VCTS SCT025CB BKN040 
     PROB30 1620/1624 VRB15G25KT 2SM TSRA BKN025CB 
     FM170200 25004KT P6SM VCSH SCT040 BKN100